createdAt,value
2023-11-18T09:07:01.460Z,100220.41
2023-11-18T09:10:05.131Z,100220.41
2023-11-18T09:13:08.062Z,100222.66
2023-11-18T09:16:12.331Z,100231.78
2023-11-18T09:19:15.724Z,100244.28
2023-11-18T09:22:20.262Z,100219.31
2023-11-18T09:25:23.465Z,100228.25
2023-11-18T09:28:29.811Z,100219.44
2023-11-18T09:31:34.764Z,100247.19
2023-11-18T09:34:40.641Z,100229.16
2023-11-18T09:37:43.714Z,100220.13
2023-11-18T09:40:49.157Z,100236.13
2023-11-18T09:43:55.563Z,100240.03
2023-11-18T09:47:08.045Z,100239.81
2023-11-18T09:50:15.188Z,100228.91
2023-11-18T09:53:26.757Z,100251.09
2023-11-18T09:56:47.050Z,100241.53
2023-11-18T10:00:42.940Z,100256.78
2023-11-18T10:03:47.357Z,100240.03
2023-11-18T10:06:53.826Z,100227.53
2023-11-18T10:10:00.067Z,100236.19
2023-11-18T10:13:07.256Z,100226.16
2023-11-18T10:16:10.416Z,100244.47
2023-11-18T10:19:15.926Z,100239.72
2023-11-18T10:22:27.484Z,100254.16
2023-11-18T10:25:31.096Z,100247.03
2023-11-18T10:28:39.270Z,100239.75
2023-11-18T10:31:46.497Z,100260.97
2023-11-18T10:34:52.317Z,100243.13
2023-11-18T10:37:55.303Z,100246.03
2023-11-18T10:41:02.362Z,100242.25
2023-11-18T10:44:18.462Z,100247.25
2023-11-18T10:47:21.806Z,100256.25
2023-11-18T10:50:24.486Z,100247.50
2023-11-18T10:53:29.173Z,100253.91
2023-11-18T10:56:34.070Z,100244.41
2023-11-18T11:00:14.367Z,100255.03
2023-11-18T11:03:17.686Z,100252.19
2023-11-18T11:06:24.754Z,100243.63
2023-11-18T11:09:36.663Z,100234.53
2023-11-18T11:12:53.177Z,100242.84
2023-11-18T11:15:58.006Z,100244.47
2023-11-18T11:19:10.135Z,100236.94
2023-11-18T11:22:22.182Z,100244.22
2023-11-18T11:25:56.654Z,100261.16
2023-11-18T11:29:11.169Z,100278.19
2023-11-18T11:32:32.763Z,100278.25
2023-11-18T11:35:41.711Z,100287.75
2023-11-18T11:38:47.983Z,100283.16
2023-11-18T11:41:58.399Z,100282.72
2023-11-18T11:45:03.208Z,100278.69
2023-11-18T11:48:16.582Z,100282.28
2023-11-18T11:51:44.876Z,100293.06
2023-11-18T11:55:07.099Z,100272.84
2023-11-18T11:58:32.326Z,100269.72
2023-11-18T12:01:38.699Z,100274.78
2023-11-18T12:04:43.112Z,100270.91
2023-11-18T12:07:47.701Z,100282.22
2023-11-18T12:10:55.784Z,100282.56
2023-11-18T12:14:23.198Z,100284.13
2023-11-18T12:17:33.139Z,100289.81
2023-11-18T12:20:48.998Z,100285.81
2023-11-18T12:24:20.261Z,100290.44
2023-11-18T12:27:41.597Z,100292.09
2023-11-18T12:30:59.230Z,100294.44
2023-11-18T12:34:04.276Z,100305.94
2023-11-18T12:38:04.720Z,100298.94
2023-11-18T12:41:12.824Z,100290.47
2023-11-18T12:44:19.088Z,100295.84
2023-11-18T12:47:29.661Z,100301.22
2023-11-18T12:50:37.167Z,100306.28
2023-11-18T12:53:39.784Z,100308.37
2023-11-18T12:56:49.489Z,100286.81
2023-11-18T12:59:52.155Z,100301.31
2023-11-18T13:02:56.028Z,100310.47
2023-11-18T13:05:59.250Z,100317.22
2023-11-18T13:09:06.894Z,100330.72
2023-11-18T13:12:10.371Z,100314.16
2023-11-18T13:15:13.752Z,100300.50
2023-11-18T13:18:16.371Z,100323.53
2023-11-18T13:21:21.587Z,100330.41
2023-11-18T13:24:24.264Z,100321.34
2023-11-18T13:27:27.163Z,100333.47
2023-11-18T13:30:30.196Z,100319.31
2023-11-18T13:33:34.560Z,100335.06
2023-11-18T13:36:40.170Z,100317.66
2023-11-18T13:39:46.640Z,100336.94
2023-11-18T13:42:49.466Z,100340.72
2023-11-18T13:45:55.618Z,100342.50
2023-11-18T13:48:58.787Z,100352.53
2023-11-18T13:52:03.066Z,100345.13
2023-11-18T13:55:10.162Z,100365.19
2023-11-18T13:58:13.048Z,100358.91
2023-11-18T14:01:17.297Z,100368.84
2023-11-18T14:04:21.177Z,100367.72
2023-11-18T14:07:25.463Z,100366.69
2023-11-18T14:10:29.126Z,100370.50
2023-11-18T14:13:32.468Z,100375.91
2023-11-18T14:16:35.636Z,100365.87
2023-11-18T14:19:39.085Z,100367.69
2023-11-18T14:22:44.042Z,100371.75
2023-11-18T14:25:47.054Z,100374.94
2023-11-18T14:28:50.026Z,100370.81
2023-11-18T14:31:53.688Z,100380.44
2023-11-18T14:34:57.773Z,100386.91
2023-11-18T14:38:02.144Z,100389.69
2023-11-18T14:41:05.990Z,100388.12
2023-11-18T14:44:10.672Z,100394.38
2023-11-18T14:47:15.142Z,100392.34
2023-11-18T14:50:22.036Z,100401.06
2023-11-18T14:53:26.145Z,100405.81
2023-11-18T14:56:28.885Z,100398.53
2023-11-18T14:59:33.565Z,100403.94
2023-11-18T15:02:42.064Z,100402.75
2023-11-18T15:06:18.759Z,100410.53
2023-11-18T15:09:25.656Z,100412.31
2023-11-18T15:12:35.905Z,100411.62
2023-11-18T15:15:40.125Z,100414.06
2023-11-18T15:18:47.047Z,100430.28
2023-11-18T15:22:00.333Z,100428.81
2023-11-18T15:25:40.719Z,100437.00
2023-11-18T15:28:44.928Z,100427.78
2023-11-18T15:31:48.062Z,100434.63
2023-11-18T15:34:50.857Z,100438.84
2023-11-18T15:37:55.596Z,100442.66
2023-11-18T15:40:58.540Z,100440.13
2023-11-18T15:44:01.875Z,100440.19
2023-11-18T15:47:04.978Z,100458.00
2023-11-18T15:50:09.413Z,100453.75
2023-11-18T15:53:38.109Z,100464.00
2023-11-18T15:57:05.333Z,100463.22
2023-11-18T16:00:18.840Z,100461.16
2023-11-18T16:03:22.836Z,100462.91
2023-11-18T16:06:31.054Z,100457.56
2023-11-18T16:09:38.709Z,100468.03
2023-11-18T16:13:03.609Z,100463.66
2023-11-18T16:16:07.417Z,100481.50
2023-11-18T16:19:12.375Z,100470.72
2023-11-18T16:26:25.913Z,100481.50
2023-11-18T16:29:31.933Z,100480.22
2023-11-18T16:32:35.246Z,100486.28
2023-11-18T16:35:38.584Z,100496.97
2023-11-18T16:38:42.676Z,100497.63
2023-11-18T16:41:46.474Z,100501.00
2023-11-18T16:44:53.064Z,100508.37
2023-11-18T16:47:59.176Z,100505.56
2023-11-18T16:51:02.784Z,100513.91
2023-11-18T16:54:06.551Z,100520.28
2023-11-18T16:57:09.532Z,100517.88
2023-11-18T17:00:25.588Z,100510.09
2023-11-18T17:03:30.839Z,100503.88
2023-11-18T17:06:34.215Z,100506.62
2023-11-18T17:09:36.791Z,100502.88
2023-11-18T17:12:41.049Z,100492.72
2023-11-18T17:15:44.053Z,100498.66
2023-11-18T17:18:47.221Z,100499.50
2023-11-18T17:21:49.933Z,100505.88
2023-11-18T17:24:53.068Z,100501.63
2023-11-18T17:27:55.671Z,100510.38
2023-11-18T17:30:58.758Z,100517.88
2023-11-18T17:34:03.818Z,100527.28
2023-11-18T17:37:09.295Z,100537.16
2023-11-18T17:40:13.312Z,100540.53
2023-11-18T17:43:16.632Z,100545.47
2023-11-18T17:46:19.333Z,100555.41
2023-11-18T17:49:23.389Z,100558.81
2023-11-18T17:52:26.045Z,100556.31
2023-11-18T17:55:30.124Z,100547.59
2023-11-18T17:58:33.458Z,100550.78
2023-11-18T18:01:38.975Z,100544.91
2023-11-18T18:04:42.041Z,100552.84
2023-11-18T18:07:45.168Z,100554.38
2023-11-18T18:10:55.829Z,100555.81
2023-11-18T18:14:02.429Z,100557.78
2023-11-18T18:17:07.384Z,100556.47
2023-11-18T18:20:11.217Z,100558.91
2023-11-18T18:23:15.056Z,100563.94
2023-11-18T18:26:18.119Z,100559.44
2023-11-18T18:29:24.160Z,100557.94
2023-11-18T18:32:31.005Z,100554.41
2023-11-18T18:35:35.016Z,100556.31
2023-11-18T18:38:38.383Z,100559.19
2023-11-18T18:41:53.464Z,100558.31
2023-11-18T18:44:58.127Z,100555.37
2023-11-18T18:48:03.466Z,100559.56
2023-11-18T18:51:07.278Z,100549.00
2023-11-18T18:54:12.478Z,100546.63
2023-11-18T18:57:16.833Z,100542.41
2023-11-18T19:00:19.894Z,100552.19
2023-11-18T19:03:22.706Z,100537.50
2023-11-18T19:06:26.487Z,100539.38
2023-11-18T19:09:29.095Z,100541.31
2023-11-18T19:12:36.549Z,100541.06
2023-11-18T19:15:39.745Z,100540.62
2023-11-18T19:18:43.066Z,100542.44
2023-11-18T19:21:46.504Z,100535.66
2023-11-18T19:24:52.067Z,100544.34
2023-11-18T19:27:54.718Z,100550.69
2023-11-18T19:30:57.798Z,100546.81
2023-11-18T19:34:01.017Z,100544.00
2023-11-18T19:37:04.353Z,100561.94
2023-11-18T19:40:08.115Z,100565.63
2023-11-18T19:43:11.584Z,100569.03
2023-11-18T19:46:17.599Z,100559.06
2023-11-18T19:49:23.028Z,100557.25
2023-11-18T19:52:29.925Z,100560.69
2023-11-18T19:55:34.018Z,100572.25
2023-11-18T19:58:37.193Z,100575.56
2023-11-18T20:01:40.503Z,100584.44
2023-11-18T20:04:45.663Z,100588.25
2023-11-18T20:07:48.408Z,100577.03
2023-11-18T20:10:51.546Z,100577.09
2023-11-18T20:13:54.614Z,100583.72
2023-11-18T20:16:58.231Z,100583.97
2023-11-18T20:20:01.449Z,100582.41
2023-11-18T20:23:05.650Z,100575.22
2023-11-18T20:26:08.712Z,100578.19
2023-11-18T20:29:12.829Z,100579.94
2023-11-18T20:32:16.263Z,100573.78
2023-11-18T20:35:20.393Z,100577.41
2023-11-18T20:38:24.424Z,100590.72
2023-11-18T20:41:29.771Z,100585.50
2023-11-18T20:44:38.515Z,100587.50
2023-11-18T20:47:42.234Z,100595.31
2023-11-18T20:50:51.955Z,100592.69
2023-11-18T20:53:55.406Z,100593.66
2023-11-18T20:56:58.150Z,100617.88
2023-11-18T21:00:02.088Z,100619.63
2023-11-18T21:03:05.421Z,100609.03
2023-11-18T21:06:08.728Z,100599.06
2023-11-18T21:09:12.247Z,100603.37
2023-11-18T21:12:18.441Z,100609.50
2023-11-18T21:15:22.720Z,100598.69
2023-11-18T21:18:25.934Z,100599.28
2023-11-18T21:21:29.234Z,100608.75
2023-11-18T21:24:35.748Z,100608.31
2023-11-18T21:27:41.516Z,100614.66
2023-11-18T21:30:45.105Z,100623.25
2023-11-18T21:33:48.181Z,100632.94
2023-11-18T21:36:51.556Z,100625.16
2023-11-18T21:39:55.271Z,100629.72
2023-11-18T21:43:00.389Z,100621.84
2023-11-18T21:46:03.209Z,100620.66
2023-11-18T21:49:10.900Z,100614.25
2023-11-18T21:55:39.324Z,100624.03
2023-11-18T21:58:42.954Z,100630.22
2023-11-18T22:01:46.419Z,100624.84
2023-11-18T22:04:52.613Z,100618.38
2023-11-18T22:07:57.398Z,100614.31
2023-11-18T22:11:01.969Z,100620.34
2023-11-18T22:14:07.484Z,100622.38
2023-11-18T22:17:14.244Z,100605.78
2023-11-18T22:20:18.291Z,100610.72
2023-11-18T22:23:22.175Z,100596.22
2023-11-18T22:26:25.598Z,100594.75
2023-11-18T22:29:31.681Z,100596.28
2023-11-18T22:32:34.788Z,100605.75
2023-11-18T22:35:38.859Z,100582.91
2023-11-18T22:38:42.609Z,100587.38
2023-11-18T22:41:47.375Z,100591.09
2023-11-18T22:44:50.602Z,100595.28
2023-11-18T22:47:54.454Z,100607.09
2023-11-18T22:50:57.569Z,100609.31
2023-11-18T22:54:06.090Z,100593.22
2023-11-18T22:57:13.596Z,100586.47
2023-11-18T23:00:38.673Z,100601.88
2023-11-18T23:03:43.681Z,100604.16
2023-11-18T23:06:52.287Z,100607.72
2023-11-18T23:09:59.133Z,100610.31
2023-11-18T23:13:02.738Z,100606.97
2023-11-18T23:16:06.238Z,100606.56
2023-11-18T23:19:09.399Z,100590.13
2023-11-18T23:22:12.334Z,100574.38
2023-11-18T23:25:15.349Z,100577.25
2023-11-18T23:28:18.432Z,100588.75
2023-11-18T23:31:25.937Z,100590.44
2023-11-18T23:34:28.664Z,100588.22
2023-11-18T23:37:31.678Z,100582.28
2023-11-18T23:40:34.542Z,100585.00
2023-11-18T23:43:37.655Z,100590.66
2023-11-18T23:46:40.480Z,100580.16
2023-11-18T23:49:44.418Z,100586.94
2023-11-18T23:52:47.093Z,100583.13
2023-11-18T23:55:50.232Z,100579.75
2023-11-18T23:58:52.947Z,100578.12
